createdAt,value
2023-04-29T00:00:22.655Z,83.81
2023-04-29T00:01:22.650Z,84.20
2023-04-29T00:02:22.858Z,84.20
2023-04-29T00:03:23.810Z,84.48
2023-04-29T00:04:22.833Z,83.91
2023-04-29T00:05:22.864Z,84.29
2023-04-29T00:06:22.715Z,84.00
2023-04-29T00:07:22.630Z,84.10
2023-04-29T00:08:22.621Z,84.10
2023-04-29T00:09:23.624Z,84.10
2023-04-29T00:10:23.214Z,84.20
2023-04-29T00:11:22.656Z,84.00
2023-04-29T00:12:22.613Z,84.20
2023-04-29T00:13:22.621Z,84.10
2023-04-29T00:14:22.606Z,84.00
2023-04-29T00:15:23.606Z,84.00
2023-04-29T00:16:22.760Z,84.39
2023-04-29T00:17:22.677Z,84.29
2023-04-29T00:18:22.604Z,84.67
2023-04-29T00:19:22.581Z,84.67
2023-04-29T00:20:22.565Z,84.39
2023-04-29T00:21:24.226Z,84.48
2023-04-29T00:22:22.578Z,84.48
2023-04-29T00:23:22.629Z,84.39
2023-04-29T00:24:23.228Z,84.67
2023-04-29T00:25:22.557Z,84.58
2023-04-29T00:26:24.221Z,84.48
2023-04-29T00:27:23.590Z,84.86
2023-04-29T00:28:22.569Z,84.86
2023-04-29T00:29:22.545Z,85.44
2023-04-29T00:30:22.528Z,85.15
2023-04-29T00:31:22.590Z,85.34
2023-04-29T00:32:22.578Z,85.05
2023-04-29T00:33:23.544Z,84.96
2023-04-29T00:34:23.784Z,84.86
2023-04-29T00:35:22.512Z,85.05
2023-04-29T00:36:22.519Z,84.96
2023-04-29T00:37:22.534Z,84.96
2023-04-29T00:38:22.523Z,84.96
2023-04-29T00:39:23.563Z,85.05
2023-04-29T00:40:22.514Z,84.86
2023-04-29T00:41:22.526Z,84.67
2023-04-29T00:42:22.613Z,84.86
2023-04-29T00:43:22.500Z,85.34
2023-04-29T00:44:22.487Z,85.25
2023-04-29T00:45:23.496Z,85.34
2023-04-29T00:46:22.533Z,85.53
2023-04-29T00:47:22.514Z,85.44
2023-04-29T00:48:22.492Z,85.34
2023-04-29T00:49:22.481Z,85.25
2023-04-29T00:50:22.476Z,85.53
2023-04-29T00:51:23.498Z,85.34
2023-04-29T00:52:22.476Z,85.53
2023-04-29T00:53:22.486Z,85.25
2023-04-29T00:54:22.450Z,85.34
2023-04-29T00:55:22.452Z,85.44
2023-04-29T00:56:22.441Z,85.34
2023-04-29T00:57:23.456Z,85.44
2023-04-29T00:58:22.450Z,85.44
2023-04-29T00:59:22.453Z,85.15
2023-04-29T01:00:22.446Z,85.44
2023-04-29T01:01:22.466Z,85.34
2023-04-29T01:02:22.485Z,85.34
2023-04-29T01:03:23.554Z,85.53
2023-04-29T01:04:22.479Z,85.34
2023-04-29T01:05:22.426Z,85.44
2023-04-29T01:06:22.458Z,85.34
2023-04-29T01:07:22.441Z,85.91
2023-04-29T01:08:22.523Z,85.82
2023-04-29T01:09:23.946Z,86.01
2023-04-29T01:10:22.399Z,85.91
2023-04-29T01:11:22.420Z,85.91
2023-04-29T01:12:22.450Z,85.72
2023-04-29T01:13:23.809Z,85.91
2023-04-29T01:14:22.398Z,85.72
2023-04-29T01:15:23.415Z,86.01
2023-04-29T01:16:22.449Z,86.30
2023-04-29T01:17:22.410Z,86.49
2023-04-29T01:18:22.384Z,86.68
2023-04-29T01:19:22.383Z,87.35
2023-04-29T01:20:22.406Z,86.96
2023-04-29T01:21:24.295Z,87.73
2023-04-29T01:22:22.369Z,88.40
2023-04-29T01:23:22.373Z,88.30
2023-04-29T01:24:22.370Z,88.68
2023-04-29T01:25:22.350Z,88.20
2023-04-29T01:26:22.354Z,88.87
2023-04-29T01:27:23.375Z,89.40
2023-04-29T01:28:22.338Z,89.83
2023-04-29T01:29:22.348Z,89.97
2023-04-29T01:30:22.356Z,90.17
2023-04-29T01:31:22.378Z,90.17
2023-04-29T01:32:22.326Z,90.17
2023-04-29T01:33:23.345Z,90.59
2023-04-29T01:34:22.321Z,90.88
2023-04-29T01:35:22.311Z,90.93
2023-04-29T01:36:22.312Z,90.69
2023-04-29T01:37:22.314Z,91.74
2023-04-29T01:38:22.305Z,91.31
2023-04-29T01:39:23.311Z,91.74
2023-04-29T01:40:22.297Z,91.45
2023-04-29T01:41:22.307Z,91.93
2023-04-29T01:42:23.765Z,91.60
2023-04-29T01:43:22.295Z,92.55
2023-04-29T01:44:22.290Z,92.36
2023-04-29T01:45:23.802Z,92.65
2023-04-29T01:46:23.259Z,92.55
2023-04-29T01:47:22.322Z,93.12
2023-04-29T01:48:22.298Z,93.12
2023-04-29T01:49:22.299Z,93.60
2023-04-29T01:50:22.264Z,93.51
2023-04-29T01:51:23.272Z,93.12
2023-04-29T01:52:23.250Z,93.51
2023-04-29T01:53:22.262Z,93.51
2023-04-29T01:54:22.249Z,93.70
2023-04-29T01:55:22.252Z,93.88
2023-04-29T01:56:22.734Z,94.27
2023-04-29T01:57:23.279Z,94.07
2023-04-29T01:58:22.240Z,94.93
2023-04-29T01:59:22.265Z,94.56
2023-04-29T02:00:22.248Z,94.65
2023-04-29T02:01:22.320Z,94.27
2023-04-29T02:02:22.344Z,94.93
2023-04-29T02:03:23.288Z,94.84
2023-04-29T02:04:22.246Z,95.03
2023-04-29T02:05:22.834Z,94.56
2023-04-29T02:06:22.284Z,94.56
2023-04-29T02:07:22.207Z,95.41
2023-04-29T02:08:22.230Z,94.65
2023-04-29T02:09:23.216Z,94.74
2023-04-29T02:10:22.205Z,95.22
2023-04-29T02:11:22.240Z,95.51
2023-04-29T02:12:22.186Z,95.22
2023-04-29T02:13:22.191Z,95.32
2023-04-29T02:14:22.213Z,95.32
2023-04-29T02:15:24.328Z,95.32
2023-04-29T02:16:22.267Z,95.32
2023-04-29T02:17:22.239Z,95.41
2023-04-29T02:18:22.171Z,95.32
2023-04-29T02:19:22.195Z,95.51
2023-04-29T02:20:22.199Z,95.22
2023-04-29T02:21:23.181Z,95.61
2023-04-29T02:22:22.159Z,95.22
2023-04-29T02:23:22.165Z,95.41
2023-04-29T02:24:22.174Z,95.41
2023-04-29T02:25:22.153Z,96.17
2023-04-29T02:26:22.751Z,95.98
2023-04-29T02:27:23.746Z,95.98
2023-04-29T02:28:22.159Z,95.98
2023-04-29T02:29:22.139Z,95.79
2023-04-29T02:30:22.823Z,95.61
2023-04-29T02:31:23.391Z,96.08
2023-04-29T02:32:22.475Z,96.27
2023-04-29T02:33:23.124Z,96.27
2023-04-29T02:34:22.108Z,96.17
2023-04-29T02:35:22.125Z,95.79
2023-04-29T02:36:22.152Z,96.17
2023-04-29T02:37:22.127Z,96.84
2023-04-29T02:38:22.770Z,96.94
2023-04-29T02:39:23.118Z,96.56
2023-04-29T02:40:22.117Z,96.94
2023-04-29T02:41:22.119Z,96.75
2023-04-29T02:42:22.142Z,96.84
2023-04-29T02:43:22.083Z,96.94
2023-04-29T02:44:22.079Z,96.84
2023-04-29T02:45:23.105Z,97.42
2023-04-29T02:46:22.888Z,97.22
2023-04-29T02:47:23.381Z,97.42
2023-04-29T02:48:22.111Z,97.51
2023-04-29T02:49:22.094Z,97.32
2023-04-29T02:50:22.092Z,97.61
2023-04-29T02:51:23.575Z,97.61
2023-04-29T02:52:22.113Z,98.08
2023-04-29T02:53:24.255Z,98.08
2023-04-29T02:54:22.089Z,97.99
2023-04-29T02:55:22.047Z,97.89
2023-04-29T02:56:22.057Z,97.99
2023-04-29T02:57:24.255Z,97.51
2023-04-29T02:58:22.071Z,97.61
2023-04-29T02:59:22.042Z,97.80
2023-04-29T03:00:22.034Z,97.89
2023-04-29T03:01:24.326Z,97.89
2023-04-29T03:02:22.068Z,97.61
2023-04-29T03:03:23.368Z,97.80
2023-04-29T03:04:22.274Z,98.66
2023-04-29T03:05:22.006Z,98.47
2023-04-29T03:06:21.992Z,98.47
2023-04-29T03:07:22.043Z,98.37
2023-04-29T03:08:22.012Z,98.47
2023-04-29T03:09:23.051Z,98.37
2023-04-29T03:10:22.007Z,98.18
2023-04-29T03:11:22.085Z,98.47
2023-04-29T03:12:22.538Z,98.75
2023-04-29T03:13:22.011Z,99.04
2023-04-29T03:14:21.967Z,98.75
2023-04-29T03:15:22.994Z,99.04
2023-04-29T03:16:22.080Z,99.04
2023-04-29T03:17:22.535Z,98.37
2023-04-29T03:18:21.980Z,98.27
2023-04-29T03:19:23.261Z,98.56
2023-04-29T03:20:21.969Z,98.47
2023-04-29T03:21:22.951Z,98.37
2023-04-29T03:22:22.001Z,98.37
2023-04-29T03:23:22.036Z,98.47
2023-04-29T03:24:21.949Z,99.13
2023-04-29T03:25:21.956Z,98.75
2023-04-29T03:26:22.033Z,98.75
2023-04-29T03:27:22.942Z,98.85
2023-04-29T03:28:21.924Z,98.66
2023-04-29T03:29:21.915Z,99.52
2023-04-29T03:30:22.765Z,99.32
2023-04-29T03:31:21.980Z,99.23
2023-04-29T03:32:22.869Z,99.23
2023-04-29T03:33:22.924Z,99.32
2023-04-29T03:34:21.876Z,99.71
2023-04-29T03:35:21.906Z,99.99
2023-04-29T03:36:21.893Z,99.99
2023-04-29T03:37:21.886Z,99.99
2023-04-29T03:38:22.765Z,99.99
2023-04-29T03:39:22.890Z,99.80
2023-04-29T03:40:22.770Z,99.90
2023-04-29T03:41:21.853Z,99.80
2023-04-29T03:42:21.857Z,99.99
2023-04-29T03:43:21.869Z,99.80
2023-04-29T03:44:21.877Z,99.99
2023-04-29T03:45:23.767Z,99.99
2023-04-29T03:46:21.974Z,99.99
2023-04-29T03:47:21.929Z,99.99
2023-04-29T03:48:21.841Z,99.99
2023-04-29T03:49:21.861Z,99.99
2023-04-29T03:50:23.468Z,99.99
2023-04-29T03:51:22.854Z,99.99
2023-04-29T03:52:21.857Z,99.99
2023-04-29T03:53:21.880Z,99.99
2023-04-29T03:54:21.851Z,99.99
2023-04-29T03:55:21.856Z,99.99
2023-04-29T03:56:21.862Z,99.99
2023-04-29T03:57:22.830Z,99.99
2023-04-29T03:58:21.897Z,99.99
2023-04-29T03:59:21.850Z,99.99
2023-04-29T04:00:21.787Z,99.99
2023-04-29T04:01:21.792Z,99.99
2023-04-29T04:02:21.969Z,99.99
2023-04-29T04:03:23.073Z,99.99
2023-04-29T04:04:22.093Z,99.99
2023-04-29T04:05:21.814Z,99.99
2023-04-29T04:06:21.759Z,99.99
2023-04-29T04:07:21.797Z,99.99
2023-04-29T04:08:21.780Z,99.99
2023-04-29T04:09:22.815Z,99.99
2023-04-29T04:10:21.784Z,99.99
2023-04-29T04:11:21.769Z,99.99
2023-04-29T04:12:21.792Z,99.99
2023-04-29T04:13:21.772Z,99.99
2023-04-29T04:14:22.262Z,99.99
2023-04-29T04:15:22.822Z,99.99
2023-04-29T04:16:21.818Z,99.99
2023-04-29T04:17:21.753Z,99.99
2023-04-29T04:18:23.776Z,99.99
2023-04-29T04:19:22.290Z,99.99
2023-04-29T04:20:21.739Z,99.99
2023-04-29T04:21:22.770Z,99.99
2023-04-29T04:22:21.748Z,99.99
2023-04-29T04:23:21.716Z,99.99
2023-04-29T04:24:21.732Z,99.99
2023-04-29T04:25:21.708Z,99.99
2023-04-29T04:26:21.716Z,99.99
2023-04-29T04:27:22.706Z,99.99
2023-04-29T04:28:22.927Z,99.99
2023-04-29T04:29:21.750Z,99.99
2023-04-29T04:30:21.747Z,99.99
2023-04-29T04:31:21.714Z,99.99
2023-04-29T04:32:21.700Z,99.99
2023-04-29T04:33:22.730Z,99.99
2023-04-29T04:34:21.680Z,99.99
2023-04-29T04:35:21.719Z,99.99
2023-04-29T04:36:22.276Z,99.99
2023-04-29T04:37:21.664Z,99.99
2023-04-29T04:38:21.683Z,99.99
2023-04-29T04:39:22.687Z,99.99
2023-04-29T04:40:22.283Z,99.99
2023-04-29T04:41:21.695Z,99.99
2023-04-29T04:42:21.650Z,99.99
2023-04-29T04:43:21.650Z,99.99
2023-04-29T04:44:22.280Z,99.99
2023-04-29T04:45:22.705Z,99.99
2023-04-29T04:46:21.675Z,99.99
2023-04-29T04:47:22.291Z,99.99
2023-04-29T04:48:21.634Z,99.99
2023-04-29T04:49:21.658Z,99.99
2023-04-29T04:50:21.614Z,99.99
2023-04-29T04:51:23.168Z,99.99
2023-04-29T04:52:21.601Z,99.99
2023-04-29T04:53:21.631Z,99.99
2023-04-29T04:54:21.596Z,99.99
2023-04-29T04:55:21.627Z,99.99
2023-04-29T04:56:21.598Z,99.99
2023-04-29T04:57:23.364Z,99.99
2023-04-29T04:58:21.594Z,99.99
2023-04-29T04:59:21.582Z,99.99
2023-04-29T05:00:21.621Z,99.99
2023-04-29T05:01:21.629Z,99.99
2023-04-29T05:02:21.681Z,99.99
2023-04-29T05:03:23.262Z,99.99
2023-04-29T05:04:21.707Z,99.99
2023-04-29T05:05:22.089Z,99.99
2023-04-29T05:06:21.562Z,99.99
2023-04-29T05:07:22.286Z,99.99
2023-04-29T05:08:21.557Z,99.99
2023-04-29T05:09:22.686Z,99.99
2023-04-29T05:10:21.562Z,99.99
2023-04-29T05:11:21.565Z,99.99
2023-04-29T05:12:21.541Z,99.99
2023-04-29T05:13:21.563Z,99.99
2023-04-29T05:14:21.537Z,99.99
2023-04-29T05:15:22.547Z,99.99
2023-04-29T05:16:21.605Z,99.99
2023-04-29T05:17:21.567Z,99.99
2023-04-29T05:18:21.570Z,99.99
2023-04-29T05:19:21.580Z,99.99
2023-04-29T05:20:22.290Z,99.99
2023-04-29T05:21:22.524Z,99.99
2023-04-29T05:22:21.525Z,99.99
2023-04-29T05:23:21.504Z,99.99
2023-04-29T05:24:21.500Z,99.99
2023-04-29T05:25:21.496Z,99.99
2023-04-29T05:26:21.499Z,99.99
2023-04-29T05:27:22.509Z,99.99
2023-04-29T05:28:21.504Z,99.99
2023-04-29T05:29:21.572Z,99.99
2023-04-29T05:30:22.302Z,99.99
2023-04-29T05:31:22.375Z,99.99
2023-04-29T05:32:21.524Z,99.99
2023-04-29T05:33:22.491Z,99.99
2023-04-29T05:34:21.475Z,99.99
2023-04-29T05:35:21.841Z,99.99
2023-04-29T05:36:21.468Z,99.99
2023-04-29T05:37:21.454Z,99.99
2023-04-29T05:38:21.463Z,99.99
2023-04-29T05:39:22.460Z,99.99
2023-04-29T05:40:21.440Z,99.99
2023-04-29T05:41:21.451Z,99.99
2023-04-29T05:42:21.425Z,99.99
2023-04-29T05:43:22.290Z,99.99
2023-04-29T05:44:21.434Z,99.99
2023-04-29T05:45:22.438Z,99.99
2023-04-29T05:46:22.327Z,99.99
2023-04-29T05:47:22.339Z,99.99
2023-04-29T05:48:21.472Z,99.99
2023-04-29T05:49:21.402Z,99.99
2023-04-29T05:50:21.409Z,99.99
2023-04-29T05:51:22.429Z,99.99
2023-04-29T05:52:22.791Z,99.99
2023-04-29T05:53:21.404Z,99.99
2023-04-29T05:54:21.408Z,99.99
2023-04-29T05:55:22.302Z,99.99
2023-04-29T05:56:21.390Z,99.99
2023-04-29T05:57:22.385Z,99.99
2023-04-29T05:58:22.300Z,99.99
2023-04-29T05:59:21.374Z,99.99
2023-04-29T06:00:21.471Z,99.99
2023-04-29T06:01:21.372Z,99.99
2023-04-29T06:02:21.456Z,99.99
2023-04-29T06:03:22.767Z,99.99
2023-04-29T06:04:22.105Z,99.99
2023-04-29T06:05:21.649Z,99.99
2023-04-29T06:06:21.387Z,99.99
2023-04-29T06:07:21.370Z,99.99
2023-04-29T06:08:22.297Z,99.99
2023-04-29T06:09:27.678Z,99.99
2023-04-29T06:10:21.623Z,99.99
2023-04-29T06:11:22.317Z,99.99
2023-04-29T06:12:21.347Z,99.99
2023-04-29T06:13:21.342Z,99.99
2023-04-29T06:14:21.364Z,99.99
2023-04-29T06:15:22.344Z,99.99
2023-04-29T06:16:22.808Z,99.99
2023-04-29T06:17:21.351Z,99.99
2023-04-29T06:18:21.799Z,99.99
2023-04-29T06:19:21.304Z,99.99
2023-04-29T06:20:21.314Z,99.99
2023-04-29T06:21:22.336Z,99.99
2023-04-29T06:22:21.296Z,99.99
2023-04-29T06:23:21.317Z,99.99
2023-04-29T06:24:21.289Z,99.99
2023-04-29T06:25:21.287Z,99.99
2023-04-29T06:26:21.329Z,99.99
2023-04-29T06:27:22.311Z,99.99
2023-04-29T06:28:21.280Z,99.99
2023-04-29T06:29:21.281Z,99.99
2023-04-29T06:30:21.306Z,99.99
2023-04-29T06:31:23.034Z,99.99
2023-04-29T06:32:22.813Z,99.99
2023-04-29T06:33:22.266Z,99.99
2023-04-29T06:34:21.271Z,99.99
2023-04-29T06:35:21.821Z,99.99
2023-04-29T06:36:21.249Z,99.99
2023-04-29T06:37:21.262Z,99.99
2023-04-29T06:38:21.256Z,99.99
2023-04-29T06:39:22.245Z,99.99
2023-04-29T06:40:21.810Z,99.99
2023-04-29T06:41:21.274Z,99.99
2023-04-29T06:42:21.231Z,99.99
2023-04-29T06:43:21.242Z,99.99
2023-04-29T06:44:21.279Z,99.99
2023-04-29T06:45:22.284Z,99.99
2023-04-29T06:46:21.232Z,99.99
2023-04-29T06:47:21.262Z,99.99
2023-04-29T06:48:21.234Z,99.99
2023-04-29T06:49:21.203Z,99.99
2023-04-29T06:50:21.215Z,99.99
2023-04-29T06:51:22.223Z,99.99
2023-04-29T06:52:21.206Z,99.99
2023-04-29T06:53:21.210Z,99.99
2023-04-29T06:54:21.189Z,99.99
2023-04-29T06:55:21.189Z,99.99
2023-04-29T06:56:21.193Z,99.99
2023-04-29T06:57:22.190Z,99.99
2023-04-29T06:58:21.219Z,99.99
2023-04-29T06:59:21.186Z,99.99
2023-04-29T07:00:21.177Z,99.99
2023-04-29T07:01:21.273Z,99.99
2023-04-29T07:02:21.888Z,99.99
2023-04-29T07:03:22.251Z,99.99
2023-04-29T07:04:21.923Z,99.99
2023-04-29T07:05:21.207Z,99.99
2023-04-29T07:06:22.250Z,99.99
2023-04-29T07:07:21.152Z,99.99
2023-04-29T07:08:21.246Z,99.99
2023-04-29T07:09:22.812Z,99.99
2023-04-29T07:10:21.819Z,99.99
2023-04-29T07:11:21.149Z,99.99
2023-04-29T07:12:21.159Z,99.99
2023-04-29T07:13:21.155Z,99.99
2023-04-29T07:14:21.131Z,99.99
2023-04-29T07:15:22.149Z,99.99
2023-04-29T07:16:21.154Z,99.99
2023-04-29T07:17:21.940Z,99.99
2023-04-29T07:18:21.126Z,99.99
2023-04-29T07:19:21.273Z,99.99
2023-04-29T07:20:22.502Z,99.99
2023-04-29T07:21:22.131Z,99.99
2023-04-29T07:22:21.117Z,99.99
2023-04-29T07:23:21.110Z,99.99
2023-04-29T07:24:21.822Z,99.99
2023-04-29T07:25:21.102Z,99.99
2023-04-29T07:26:21.156Z,99.99
2023-04-29T07:27:22.108Z,99.99
2023-04-29T07:28:21.121Z,99.99
2023-04-29T07:29:21.138Z,99.99
2023-04-29T07:30:21.078Z,99.99
2023-04-29T07:31:21.148Z,99.99
2023-04-29T07:32:21.868Z,99.99
2023-04-29T07:33:22.097Z,99.99
2023-04-29T07:34:21.087Z,99.99
2023-04-29T07:35:21.080Z,99.99
2023-04-29T07:36:21.129Z,99.99
2023-04-29T07:37:21.065Z,99.99
2023-04-29T07:38:21.058Z,99.99
2023-04-29T07:39:23.816Z,99.99
2023-04-29T07:40:21.058Z,99.99
2023-04-29T07:41:21.115Z,99.99
2023-04-29T07:42:21.053Z,99.99
2023-04-29T07:43:21.061Z,99.99
2023-04-29T07:44:21.056Z,99.99
2023-04-29T07:45:22.062Z,99.99
2023-04-29T07:46:21.085Z,99.99
2023-04-29T07:47:21.658Z,99.99
2023-04-29T07:48:21.038Z,99.99
2023-04-29T07:49:21.099Z,99.99
2023-04-29T07:50:21.035Z,99.99
2023-04-29T07:51:22.128Z,99.99
2023-04-29T07:52:21.017Z,99.99
2023-04-29T07:53:21.008Z,99.99
2023-04-29T07:54:21.821Z,99.99
2023-04-29T07:55:21.007Z,99.99
2023-04-29T07:56:21.010Z,99.99
2023-04-29T07:57:22.025Z,99.99
2023-04-29T07:58:21.036Z,99.99
2023-04-29T07:59:21.055Z,99.99
2023-04-29T08:00:20.981Z,99.99
2023-04-29T08:01:21.829Z,99.99
2023-04-29T08:02:21.086Z,99.99
2023-04-29T08:03:22.124Z,99.99
2023-04-29T08:04:21.169Z,99.99
2023-04-29T08:05:21.335Z,99.99
2023-04-29T08:06:21.825Z,99.99
2023-04-29T08:07:20.986Z,99.99
2023-04-29T08:08:20.967Z,99.99
2023-04-29T08:09:21.981Z,98.75
2023-04-29T08:10:21.004Z,99.04
2023-04-29T08:11:20.952Z,98.85
2023-04-29T08:12:20.968Z,99.43
2023-04-29T08:13:20.969Z,99.14
2023-04-29T08:14:20.953Z,98.18
2023-04-29T08:15:21.950Z,97.80
2023-04-29T08:16:20.994Z,97.71
2023-04-29T08:17:21.909Z,97.80
2023-04-29T08:18:20.929Z,97.99
2023-04-29T08:19:20.940Z,98.08
2023-04-29T08:20:20.956Z,98.18
2023-04-29T08:21:22.010Z,97.99
2023-04-29T08:22:20.928Z,97.80
2023-04-29T08:23:20.912Z,98.18
2023-04-29T08:24:21.894Z,98.18
2023-04-29T08:25:20.914Z,97.71
2023-04-29T08:26:20.904Z,97.52
2023-04-29T08:27:21.943Z,97.75
2023-04-29T08:28:21.831Z,98.42
2023-04-29T08:29:20.917Z,98.61
2023-04-29T08:30:21.090Z,99.08
2023-04-29T08:31:20.938Z,98.71
2023-04-29T08:32:20.928Z,99.18
2023-04-29T08:33:21.877Z,99.37
2023-04-29T08:34:20.903Z,99.47
2023-04-29T08:35:20.894Z,98.99
2023-04-29T08:36:20.887Z,99.85
2023-04-29T08:37:21.876Z,99.99
2023-04-29T08:38:20.889Z,99.99
2023-04-29T08:39:21.881Z,99.99
2023-04-29T08:40:20.968Z,99.95
2023-04-29T08:41:21.833Z,99.37
2023-04-29T08:42:20.866Z,99.08
2023-04-29T08:43:20.918Z,98.71
2023-04-29T08:44:20.941Z,98.61
2023-04-29T08:45:21.870Z,98.80
2023-04-29T08:46:21.451Z,98.99
2023-04-29T08:47:21.011Z,99.08
2023-04-29T08:48:20.998Z,99.08
2023-04-29T08:49:20.981Z,98.99
2023-04-29T08:50:20.928Z,99.37
2023-04-29T08:51:21.834Z,98.08
2023-04-29T08:52:20.895Z,98.42
2023-04-29T08:53:20.807Z,98.23
2023-04-29T08:54:21.338Z,98.47
2023-04-29T08:55:20.801Z,98.18
2023-04-29T08:56:20.858Z,98.56
2023-04-29T08:57:21.826Z,99.04
2023-04-29T08:58:20.798Z,98.66
2023-04-29T08:59:20.793Z,98.94
2023-04-29T09:00:20.856Z,99.13
2023-04-29T09:01:20.848Z,98.75
2023-04-29T09:02:20.830Z,99.04
2023-04-29T09:03:22.251Z,98.75
2023-04-29T09:04:20.884Z,98.75
2023-04-29T09:05:20.803Z,98.66
2023-04-29T09:06:20.791Z,99.13
2023-04-29T09:07:20.776Z,98.94
2023-04-29T09:08:20.789Z,99.23
2023-04-29T09:09:21.763Z,99.04
2023-04-29T09:10:20.788Z,99.04
2023-04-29T09:11:20.842Z,99.18
2023-04-29T09:12:20.882Z,98.61
2023-04-29T09:13:20.764Z,98.85
2023-04-29T09:14:20.778Z,98.94
2023-04-29T09:15:21.785Z,98.80
2023-04-29T09:16:20.775Z,98.94
2023-04-29T09:17:20.873Z,99.08
2023-04-29T09:18:20.826Z,98.42
2023-04-29T09:19:20.745Z,98.18
2023-04-29T09:20:20.803Z,97.61
2023-04-29T09:21:22.818Z,97.89
2023-04-29T09:22:21.347Z,97.61
2023-04-29T09:23:20.784Z,97.51
2023-04-29T09:24:20.808Z,97.61
2023-04-29T09:25:20.994Z,97.89
2023-04-29T09:26:20.718Z,97.61
2023-04-29T09:27:21.725Z,98.08
2023-04-29T09:28:21.364Z,98.37
2023-04-29T09:29:20.705Z,98.75
2023-04-29T09:30:21.353Z,98.56
2023-04-29T09:31:20.820Z,98.75
2023-04-29T09:32:20.778Z,98.99
2023-04-29T09:33:21.694Z,98.99
2023-04-29T09:34:20.668Z,98.37
2023-04-29T09:35:20.665Z,98.61
2023-04-29T09:36:20.743Z,97.37
2023-04-29T09:37:20.662Z,97.47
2023-04-29T09:38:20.700Z,97.47
2023-04-29T09:39:21.676Z,98.03
2023-04-29T09:40:20.700Z,97.94
2023-04-29T09:41:20.737Z,98.32
2023-04-29T09:42:20.677Z,97.47
2023-04-29T09:43:20.645Z,97.61
2023-04-29T09:44:20.685Z,97.18
2023-04-29T09:45:21.679Z,97.03
2023-04-29T09:46:20.694Z,96.80
2023-04-29T09:47:20.742Z,96.84
2023-04-29T09:48:20.703Z,97.03
2023-04-29T09:49:20.717Z,96.89
2023-04-29T09:50:20.624Z,96.66
2023-04-29T09:51:21.673Z,96.89
2023-04-29T09:52:20.613Z,96.84
2023-04-29T09:53:20.629Z,97.03
2023-04-29T09:54:20.715Z,96.37
2023-04-29T09:55:20.705Z,96.56
2023-04-29T09:56:20.690Z,96.94
2023-04-29T09:57:21.653Z,96.56
2023-04-29T09:58:20.652Z,96.17
2023-04-29T09:59:20.669Z,96.27
2023-04-29T10:00:20.613Z,96.46
2023-04-29T10:01:20.703Z,96.75
2023-04-29T10:02:35.560Z,97.22
2023-04-29T10:03:21.640Z,98.27
2023-04-29T10:04:20.603Z,98.94
2023-04-29T10:05:20.592Z,97.75
2023-04-29T10:06:20.680Z,97.37
2023-04-29T10:07:20.595Z,98.13
2023-04-29T10:08:20.597Z,97.47
2023-04-29T10:09:21.658Z,96.66
2023-04-29T10:10:20.747Z,96.27
2023-04-29T10:11:20.594Z,95.12
2023-04-29T10:12:20.719Z,94.36
2023-04-29T10:13:20.560Z,93.41
2023-04-29T10:14:20.545Z,93.07
2023-04-29T10:15:21.591Z,93.21
2023-04-29T10:16:20.598Z,93.41
2023-04-29T10:17:20.543Z,93.41
2023-04-29T10:18:20.594Z,93.36
2023-04-29T10:19:20.543Z,93.36
2023-04-29T10:20:20.525Z,92.97
2023-04-29T10:21:21.511Z,92.88
2023-04-29T10:22:20.522Z,93.55
2023-04-29T10:23:20.509Z,93.55
2023-04-29T10:24:20.518Z,93.93
2023-04-29T10:25:20.515Z,94.31
2023-04-29T10:26:20.610Z,93.93
2023-04-29T10:27:21.946Z,94.98
2023-04-29T10:28:20.506Z,94.70
2023-04-29T10:29:20.495Z,94.41
2023-04-29T10:30:20.498Z,94.22
2023-04-29T10:31:20.521Z,93.93
2023-04-29T10:32:20.477Z,94.22
2023-04-29T10:33:21.519Z,94.12
2023-04-29T10:34:21.362Z,94.41
2023-04-29T10:35:20.521Z,94.12
2023-04-29T10:36:20.499Z,94.31
2023-04-29T10:37:20.465Z,94.31
2023-04-29T10:38:20.478Z,94.31
2023-04-29T10:39:21.504Z,94.12
2023-04-29T10:40:21.390Z,94.12
2023-04-29T10:41:20.463Z,94.22
2023-04-29T10:42:21.441Z,94.12
2023-04-29T10:43:20.446Z,94.60
2023-04-29T10:44:20.436Z,94.70
2023-04-29T10:45:21.504Z,94.60
2023-04-29T10:46:20.501Z,94.79
2023-04-29T10:47:20.435Z,94.12
2023-04-29T10:48:20.417Z,94.12
2023-04-29T10:49:20.428Z,93.98
2023-04-29T10:50:20.403Z,94.12
2023-04-29T10:51:21.426Z,93.79
2023-04-29T10:52:20.449Z,93.70
2023-04-29T10:53:20.439Z,94.31
2023-04-29T10:54:20.414Z,94.60
2023-04-29T10:55:20.396Z,94.79
2023-04-29T10:56:20.420Z,94.70
2023-04-29T10:57:21.449Z,94.51
2023-04-29T10:58:21.376Z,94.41
2023-04-29T10:59:20.478Z,94.03
2023-04-29T11:00:20.396Z,93.46
2023-04-29T11:01:20.403Z,93.07
2023-04-29T11:02:20.379Z,92.60
2023-04-29T11:03:21.543Z,92.88
2023-04-29T11:04:20.932Z,93.31
2023-04-29T11:05:20.388Z,93.55
2023-04-29T11:06:20.388Z,93.31
2023-04-29T11:07:20.391Z,93.98
2023-04-29T11:08:20.878Z,93.31
2023-04-29T11:09:21.358Z,93.84
2023-04-29T11:10:20.456Z,93.41
2023-04-29T11:11:20.365Z,93.12
2023-04-29T11:12:20.348Z,92.93
2023-04-29T11:13:20.345Z,92.46
2023-04-29T11:14:20.337Z,92.83
2023-04-29T11:15:21.871Z,92.55
2023-04-29T11:16:20.428Z,92.55
2023-04-29T11:17:20.354Z,92.55
2023-04-29T11:18:20.334Z,92.55
2023-04-29T11:19:20.316Z,92.55
2023-04-29T11:20:20.362Z,93.07
2023-04-29T11:21:21.352Z,93.17
2023-04-29T11:22:20.322Z,92.88
2023-04-29T11:23:20.314Z,93.07
2023-04-29T11:24:20.298Z,93.07
2023-04-29T11:25:20.324Z,93.36
2023-04-29T11:26:20.320Z,92.31
2023-04-29T11:27:21.314Z,91.93
2023-04-29T11:28:20.319Z,91.36
2023-04-29T11:29:20.310Z,91.83
2023-04-29T11:30:20.299Z,91.45
2023-04-29T11:31:20.351Z,91.45
2023-04-29T11:32:20.323Z,90.88
2023-04-29T11:33:21.330Z,90.50
2023-04-29T11:34:20.263Z,90.59
2023-04-29T11:35:20.281Z,90.59
2023-04-29T11:36:20.273Z,90.69
2023-04-29T11:37:20.275Z,90.59
2023-04-29T11:38:20.274Z,90.78
2023-04-29T11:39:21.284Z,90.78
2023-04-29T11:40:20.876Z,90.78
2023-04-29T11:41:20.248Z,90.40
2023-04-29T11:42:20.250Z,90.59
2023-04-29T11:43:20.244Z,90.64
2023-04-29T11:44:20.882Z,89.97
2023-04-29T11:45:21.274Z,89.59
2023-04-29T11:46:20.322Z,88.82
2023-04-29T11:47:20.320Z,88.54
2023-04-29T11:48:20.252Z,88.82
2023-04-29T11:49:20.237Z,88.06
2023-04-29T11:50:21.078Z,87.77
2023-04-29T11:51:21.232Z,87.96
2023-04-29T11:52:20.211Z,88.25
2023-04-29T11:53:20.230Z,87.87
2023-04-29T11:54:20.224Z,88.15
2023-04-29T11:55:20.218Z,87.39
2023-04-29T11:56:20.212Z,87.39
2023-04-29T11:57:21.230Z,87.20
2023-04-29T11:58:20.214Z,87.53
2023-04-29T11:59:20.898Z,87.62
2023-04-29T12:00:20.233Z,86.96
2023-04-29T12:01:20.198Z,86.29
2023-04-29T12:02:20.361Z,85.90
2023-04-29T12:03:21.378Z,85.42
2023-04-29T12:04:20.502Z,85.90
2023-04-29T12:05:20.346Z,85.81
2023-04-29T12:06:20.214Z,85.52
2023-04-29T12:07:20.194Z,85.52
2023-04-29T12:08:20.197Z,84.95
2023-04-29T12:09:21.203Z,84.47
2023-04-29T12:10:20.228Z,84.76
2023-04-29T12:11:20.180Z,84.85
2023-04-29T12:12:20.212Z,84.76
2023-04-29T12:13:20.216Z,84.66
2023-04-29T12:14:20.181Z,84.09
2023-04-29T12:15:21.180Z,83.95
2023-04-29T12:16:20.182Z,84.05
2023-04-29T12:17:20.161Z,84.62
2023-04-29T12:18:20.169Z,85.00
2023-04-29T12:19:20.177Z,85.29
2023-04-29T12:20:20.895Z,85.29
2023-04-29T12:21:21.184Z,85.38
2023-04-29T12:22:20.177Z,85.48
2023-04-29T12:23:20.208Z,85.38
2023-04-29T12:24:20.168Z,85.48
2023-04-29T12:25:20.162Z,85.38
2023-04-29T12:26:20.160Z,85.29
2023-04-29T12:27:21.902Z,86.15
2023-04-29T12:28:20.140Z,86.15
2023-04-29T12:29:20.144Z,86.43
2023-04-29T12:30:20.174Z,85.58
2023-04-29T12:31:20.225Z,85.86
2023-04-29T12:32:20.143Z,86.34
2023-04-29T12:33:21.908Z,86.53
2023-04-29T12:34:20.148Z,86.82
2023-04-29T12:35:22.960Z,86.91
2023-04-29T12:36:20.165Z,87.10
2023-04-29T12:37:21.025Z,86.91
2023-04-29T12:38:20.099Z,87.20
2023-04-29T12:39:21.893Z,87.87
2023-04-29T12:40:20.108Z,87.39
2023-04-29T12:41:20.104Z,87.39
2023-04-29T12:42:20.182Z,87.87
2023-04-29T12:43:20.236Z,87.91
2023-04-29T12:44:20.109Z,87.68
2023-04-29T12:45:21.098Z,88.01
2023-04-29T12:46:20.087Z,87.62
2023-04-29T12:47:20.197Z,86.96
2023-04-29T12:48:29.787Z,87.15
2023-04-29T12:49:20.070Z,86.38
2023-04-29T12:50:20.121Z,86.47
2023-04-29T12:51:21.094Z,86.57
2023-04-29T12:52:20.084Z,85.52